createdAt,value
2023-01-30T14:06:15.238Z,1006.80
2023-01-30T14:07:16.219Z,1006.83
2023-01-30T14:08:16.203Z,1006.88
2023-01-30T14:09:16.201Z,1006.82
2023-01-30T14:10:16.575Z,1006.86
2023-01-30T14:11:16.211Z,1006.90
2023-01-30T14:12:16.225Z,1006.91
2023-01-30T14:13:16.210Z,1006.99
2023-01-30T14:14:16.232Z,1006.99
2023-01-30T14:15:16.715Z,1006.93
2023-01-30T14:16:16.266Z,1007.00
2023-01-30T14:17:16.208Z,1007.03
2023-01-30T14:18:16.230Z,1007.11
2023-01-30T14:19:16.249Z,1007.00
2023-01-30T14:20:16.237Z,1007.03
2023-01-30T14:21:16.215Z,1007.02
2023-01-30T14:22:16.259Z,1007.04
2023-01-30T14:24:54.852Z,1007.01
2023-01-30T14:25:55.849Z,1007.02
2023-01-30T14:26:55.816Z,1007.06
2023-01-30T14:27:55.778Z,1007.08
2023-01-30T14:28:55.780Z,1007.09
2023-01-30T14:29:55.858Z,1007.11
2023-01-30T14:30:55.779Z,1007.15
2023-01-30T14:31:55.950Z,1007.17
2023-01-30T14:32:55.768Z,1007.22
2023-01-30T14:33:55.713Z,1007.20
2023-01-30T14:34:55.708Z,1007.23
2023-01-30T14:35:55.693Z,1007.17
2023-01-30T14:36:55.712Z,1007.23
2023-01-30T14:37:55.674Z,1007.30
2023-01-30T14:38:55.676Z,1007.28
2023-01-30T14:39:55.771Z,1007.39
2023-01-30T14:40:55.645Z,1007.33
2023-01-30T14:41:55.636Z,1007.37
2023-01-30T14:42:55.644Z,1007.35
2023-01-30T14:43:55.613Z,1007.38
2023-01-30T14:44:55.673Z,1007.44
2023-01-30T14:45:55.596Z,1007.49
2023-01-30T14:46:56.884Z,1007.54
2023-01-30T14:47:55.681Z,1007.50
2023-01-30T14:48:55.599Z,1007.56
2023-01-30T14:49:55.554Z,1007.52
2023-01-30T14:50:55.544Z,1007.52
2023-01-30T14:51:55.526Z,1007.52
2023-01-30T14:52:55.540Z,1007.56
2023-01-30T14:53:55.533Z,1007.58
2023-01-30T14:54:55.498Z,1007.65
2023-01-30T14:55:55.515Z,1007.59
2023-01-30T14:56:55.486Z,1007.60
2023-01-30T14:57:55.474Z,1007.62
2023-01-30T14:58:55.516Z,1007.71
2023-01-30T15:00:14.160Z,1007.66
2023-01-30T15:00:55.526Z,1007.74
2023-01-30T15:01:55.437Z,1007.72
2023-01-30T15:02:55.431Z,1007.81
2023-01-30T15:03:55.412Z,1007.77
2023-01-30T15:04:55.400Z,1007.81
2023-01-30T15:05:55.394Z,1007.90
2023-01-30T15:06:55.396Z,1007.90
2023-01-30T15:07:55.405Z,1007.93
2023-01-30T15:08:55.368Z,1007.87
2023-01-30T15:09:55.359Z,1007.95
2023-01-30T15:10:55.370Z,1007.92
2023-01-30T15:11:55.332Z,1008.00
2023-01-30T15:12:55.312Z,1008.01
2023-01-30T15:13:55.329Z,1008.10
2023-01-30T15:14:55.313Z,1008.06
2023-01-30T15:15:55.313Z,1008.08
2023-01-30T15:16:55.279Z,1008.14
2023-01-30T15:18:06.990Z,1008.17
2023-01-30T15:18:55.269Z,1008.26
2023-01-30T15:19:55.236Z,1008.29
2023-01-30T15:20:55.231Z,1008.35
2023-01-30T15:21:55.234Z,1008.31
2023-01-30T15:22:55.217Z,1008.37
2023-01-30T15:23:55.203Z,1008.40
2023-01-30T15:24:55.243Z,1008.41
2023-01-30T15:25:55.218Z,1008.42
2023-01-30T15:26:55.210Z,1008.44
2023-01-30T15:27:55.162Z,1008.48
2023-01-30T15:28:55.169Z,1008.47
2023-01-30T15:29:55.138Z,1008.52
2023-01-30T15:30:55.176Z,1008.53
2023-01-30T15:31:55.144Z,1008.58
2023-01-30T15:32:55.131Z,1008.53
2023-01-30T15:33:55.095Z,1008.54
2023-01-30T15:34:55.141Z,1008.48
2023-01-30T15:35:55.104Z,1008.48
2023-01-30T15:36:55.075Z,1008.54
2023-01-30T15:37:55.056Z,1008.54
2023-01-30T15:38:55.049Z,1008.55
2023-01-30T15:39:55.044Z,1008.56
2023-01-30T15:40:55.038Z,1008.53
2023-01-30T15:41:55.026Z,1008.58
2023-01-30T15:42:55.014Z,1008.54
2023-01-30T15:43:54.988Z,1008.63
2023-01-30T15:44:55.062Z,1008.58
2023-01-30T15:45:55.009Z,1008.62
2023-01-30T15:46:54.962Z,1008.61
2023-01-30T15:47:54.948Z,1008.68
2023-01-30T15:48:54.944Z,1008.67
2023-01-30T15:49:54.955Z,1008.66
2023-01-30T15:50:54.918Z,1008.65
2023-01-30T15:51:54.919Z,1008.72
2023-01-30T15:52:54.897Z,1008.71
2023-01-30T15:53:54.891Z,1008.75
2023-01-30T15:54:54.902Z,1008.74
2023-01-30T15:55:54.872Z,1008.79
2023-01-30T15:56:54.866Z,1008.79
2023-01-30T15:57:54.846Z,1008.77
2023-01-30T15:58:54.853Z,1008.81
2023-01-30T15:59:54.824Z,1008.81
2023-01-30T16:00:54.847Z,1008.84
2023-01-30T16:01:54.834Z,1008.93
2023-01-30T16:02:54.799Z,1008.82
2023-01-30T16:03:54.797Z,1008.93
2023-01-30T16:04:54.797Z,1008.92
2023-01-30T16:05:54.780Z,1008.91
2023-01-30T16:06:54.753Z,1008.95
2023-01-30T16:07:54.757Z,1008.96
2023-01-30T16:08:54.728Z,1008.97
2023-01-30T16:10:06.426Z,1009.06
2023-01-30T16:10:54.719Z,1009.07
2023-01-30T16:11:54.701Z,1009.07
2023-01-30T16:12:54.718Z,1009.07
2023-01-30T16:13:54.680Z,1009.12
2023-01-30T16:14:55.422Z,1009.09
2023-01-30T16:15:54.678Z,1009.15
2023-01-30T16:16:54.710Z,1009.19
2023-01-30T16:17:54.658Z,1009.22
2023-01-30T16:18:54.637Z,1009.25
2023-01-30T16:19:54.621Z,1009.27
2023-01-30T16:21:01.950Z,1009.25
2023-01-30T16:21:54.607Z,1009.32
2023-01-30T16:22:54.594Z,1009.34
2023-01-30T16:23:54.620Z,1009.39
2023-01-30T16:24:54.627Z,1009.38
2023-01-30T16:25:54.558Z,1009.40
2023-01-30T16:26:54.539Z,1009.43
2023-01-30T16:27:54.533Z,1009.47
2023-01-30T16:28:54.535Z,1009.51
2023-01-30T16:29:54.546Z,1009.54
2023-01-30T16:30:54.577Z,1009.53
2023-01-30T16:31:54.613Z,1009.53
2023-01-30T16:32:54.478Z,1009.55
2023-01-30T16:33:54.482Z,1009.57
2023-01-30T16:34:54.476Z,1009.61
2023-01-30T16:35:54.460Z,1009.64
2023-01-30T16:36:54.444Z,1009.65
2023-01-30T16:37:54.497Z,1009.67
2023-01-30T16:38:54.489Z,1009.70
2023-01-30T16:39:55.902Z,1009.70
2023-01-30T16:40:54.400Z,1009.75
2023-01-30T16:41:55.191Z,1009.75
2023-01-30T16:42:54.445Z,1009.80
2023-01-30T16:43:54.420Z,1009.79
2023-01-30T16:44:54.534Z,1009.85
2023-01-30T16:45:54.600Z,1009.86
2023-01-30T16:46:54.389Z,1009.90
2023-01-30T16:47:54.407Z,1009.89
2023-01-30T16:48:54.369Z,1009.89
2023-01-30T16:49:54.377Z,1009.94
2023-01-30T16:50:54.345Z,1009.94
2023-01-30T16:51:54.348Z,1009.95
2023-01-30T16:52:54.370Z,1009.98
2023-01-30T16:53:54.343Z,1009.96
2023-01-30T16:54:54.309Z,1009.97
2023-01-30T16:55:54.385Z,1009.91
2023-01-30T16:56:54.288Z,1009.97
2023-01-30T16:57:54.281Z,1010.01
2023-01-30T16:58:54.274Z,1010.03
2023-01-30T16:59:54.275Z,1010.04
2023-01-30T17:00:54.269Z,1010.12
2023-01-30T17:01:54.506Z,1010.09
2023-01-30T17:02:54.229Z,1010.07
2023-01-30T17:03:54.236Z,1010.15
2023-01-30T17:04:54.246Z,1010.19
2023-01-30T17:05:54.207Z,1010.22
2023-01-30T17:06:54.183Z,1010.26
2023-01-30T17:07:54.208Z,1010.26
2023-01-30T17:08:54.217Z,1010.29
2023-01-30T17:09:54.214Z,1010.32
2023-01-30T17:10:54.169Z,1010.37
2023-01-30T17:11:54.158Z,1010.35
2023-01-30T17:12:54.150Z,1010.38
2023-01-30T17:13:54.114Z,1010.40
2023-01-30T17:14:54.106Z,1010.39
2023-01-30T17:15:54.134Z,1010.41
2023-01-30T17:16:54.112Z,1010.43
2023-01-30T17:17:54.112Z,1010.45
2023-01-30T17:18:54.176Z,1010.49
2023-01-30T17:19:54.065Z,1010.51
2023-01-30T17:20:54.048Z,1010.50
2023-01-30T17:21:54.027Z,1010.53
2023-01-30T17:22:54.046Z,1010.56
2023-01-30T17:23:54.025Z,1010.56
2023-01-30T17:24:54.052Z,1010.55
2023-01-30T17:25:53.995Z,1010.54
2023-01-30T17:26:54.035Z,1010.56
2023-01-30T17:27:53.963Z,1010.55
2023-01-30T17:28:53.961Z,1010.55
2023-01-30T17:29:53.955Z,1010.59
2023-01-30T17:30:54.030Z,1010.56
2023-01-30T17:31:53.988Z,1010.63
2023-01-30T17:32:53.954Z,1010.66
2023-01-30T17:33:53.904Z,1010.68
2023-01-30T17:34:53.895Z,1010.69
2023-01-30T17:35:53.961Z,1010.65
2023-01-30T17:36:53.888Z,1010.73
2023-01-30T17:38:04.629Z,1010.72
2023-01-30T17:38:53.860Z,1010.74
2023-01-30T17:39:53.843Z,1010.75
2023-01-30T17:40:53.840Z,1010.74
2023-01-30T17:41:53.845Z,1010.75
2023-01-30T17:42:53.819Z,1010.75
2023-01-30T17:43:53.843Z,1010.73
2023-01-30T17:44:53.789Z,1010.79
2023-01-30T17:45:55.105Z,1010.76
2023-01-30T17:46:53.794Z,1010.83
2023-01-30T17:47:53.761Z,1010.80
2023-01-30T17:48:53.770Z,1010.81
2023-01-30T17:49:53.740Z,1010.89
2023-01-30T17:50:53.746Z,1010.88
2023-01-30T17:51:53.721Z,1010.88
2023-01-30T17:52:53.707Z,1010.89
2023-01-30T17:53:53.711Z,1010.90
2023-01-30T17:54:53.701Z,1010.91
2023-01-30T17:55:53.696Z,1011.00
2023-01-30T17:56:53.660Z,1010.98
2023-01-30T17:57:53.658Z,1011.00
2023-01-30T17:58:53.686Z,1011.03
2023-01-30T17:59:53.647Z,1011.00
2023-01-30T18:00:53.638Z,1011.01
2023-01-30T18:01:53.678Z,1011.06
2023-01-30T18:02:53.669Z,1011.08
2023-01-30T18:03:53.591Z,1011.05
2023-01-30T18:04:53.598Z,1011.06
2023-01-30T18:05:53.581Z,1011.09
2023-01-30T18:06:53.579Z,1011.07
2023-01-30T18:07:53.559Z,1011.10
2023-01-30T18:08:53.536Z,1011.08
2023-01-30T18:09:53.532Z,1011.07
2023-01-30T18:10:53.533Z,1011.11
2023-01-30T18:11:53.530Z,1011.10
2023-01-30T18:12:53.497Z,1011.20
2023-01-30T18:13:53.491Z,1011.20
2023-01-30T18:14:53.494Z,1011.16
2023-01-30T18:15:53.469Z,1011.21
2023-01-30T18:16:53.497Z,1011.18
2023-01-30T18:17:53.448Z,1011.19
2023-01-30T18:18:53.462Z,1011.22
2023-01-30T18:19:53.465Z,1011.23
2023-01-30T18:20:53.416Z,1011.22
2023-01-30T18:21:53.431Z,1011.28
2023-01-30T18:22:53.411Z,1011.23
2023-01-30T18:23:53.413Z,1011.28
2023-01-30T18:24:53.488Z,1011.20
2023-01-30T18:25:53.382Z,1011.24
2023-01-30T18:26:53.375Z,1011.22
2023-01-30T18:27:53.353Z,1011.27
2023-01-30T18:28:54.210Z,1011.21
2023-01-30T18:29:53.335Z,1011.25
2023-01-30T18:30:53.437Z,1011.27
2023-01-30T18:31:53.337Z,1011.28
2023-01-30T18:32:54.114Z,1011.30
2023-01-30T18:33:53.295Z,1011.30
2023-01-30T18:34:53.294Z,1011.28
2023-01-30T18:35:53.276Z,1011.28
2023-01-30T18:36:53.251Z,1011.26
2023-01-30T18:37:53.243Z,1011.29
2023-01-30T18:38:53.228Z,1011.32
2023-01-30T18:39:53.309Z,1011.34
2023-01-30T18:40:53.223Z,1011.30
2023-01-30T18:41:53.209Z,1011.32
2023-01-30T18:42:53.191Z,1011.34
2023-01-30T18:43:53.181Z,1011.36
2023-01-30T18:44:53.190Z,1011.38
2023-01-30T18:45:53.213Z,1011.40
2023-01-30T18:46:53.155Z,1011.41
2023-01-30T18:47:53.154Z,1011.42
2023-01-30T18:48:53.147Z,1011.42
2023-01-30T18:49:53.222Z,1011.41
2023-01-30T18:50:53.101Z,1011.41
2023-01-30T18:51:53.159Z,1011.50
2023-01-30T18:52:53.089Z,1011.44
2023-01-30T18:53:53.075Z,1011.47
2023-01-30T18:54:53.077Z,1011.55
2023-01-30T18:55:53.058Z,1011.55
2023-01-30T18:56:53.051Z,1011.56
2023-01-30T18:57:53.040Z,1011.55
2023-01-30T18:58:53.034Z,1011.51
2023-01-30T18:59:53.104Z,1011.53
2023-01-30T19:00:52.998Z,1011.51
2023-01-30T19:01:52.999Z,1011.54
2023-01-30T19:02:53.030Z,1011.51
2023-01-30T19:03:52.980Z,1011.52
2023-01-30T19:04:52.964Z,1011.58
2023-01-30T19:05:52.956Z,1011.54
2023-01-30T19:06:52.937Z,1011.57
2023-01-30T19:07:52.929Z,1011.62
2023-01-30T19:08:52.933Z,1011.64
2023-01-30T19:09:52.995Z,1011.62
2023-01-30T19:10:52.896Z,1011.65
2023-01-30T19:11:52.900Z,1011.66
2023-01-30T19:12:52.899Z,1011.69
2023-01-30T19:13:52.948Z,1011.69
2023-01-30T19:14:52.862Z,1011.68
2023-01-30T19:15:52.926Z,1011.65
2023-01-30T19:16:52.830Z,1011.68
2023-01-30T19:17:52.843Z,1011.66
2023-01-30T19:18:52.823Z,1011.69
2023-01-30T19:19:52.819Z,1011.68
2023-01-30T19:20:52.793Z,1011.66
2023-01-30T19:21:52.797Z,1011.71
2023-01-30T19:22:52.770Z,1011.72
2023-01-30T19:23:52.773Z,1011.74
2023-01-30T19:24:52.845Z,1011.76
2023-01-30T19:25:52.741Z,1011.80
2023-01-30T19:26:52.809Z,1011.86
2023-01-30T19:27:54.419Z,1011.87
2023-01-30T19:28:52.721Z,1011.83
2023-01-30T19:29:52.726Z,1011.89
2023-01-30T19:30:52.842Z,1011.93
2023-01-30T19:31:52.782Z,1011.92
2023-01-30T19:32:52.752Z,1011.93
2023-01-30T19:33:52.675Z,1011.97
2023-01-30T19:34:52.650Z,1011.96
2023-01-30T19:35:52.639Z,1011.95
2023-01-30T19:36:52.638Z,1011.96
2023-01-30T19:37:52.621Z,1011.97
2023-01-30T19:38:52.638Z,1011.99
2023-01-30T19:39:52.647Z,1012.00
2023-01-30T19:40:52.598Z,1011.99
2023-01-30T19:41:52.593Z,1012.00
2023-01-30T19:42:54.769Z,1012.01
2023-01-30T19:43:52.570Z,1012.05
2023-01-30T19:44:52.545Z,1012.06
2023-01-30T19:45:52.540Z,1012.03
2023-01-30T19:46:52.544Z,1012.09
2023-01-30T19:47:52.538Z,1012.07
2023-01-30T19:48:52.542Z,1012.07
2023-01-30T19:49:52.496Z,1012.06
2023-01-30T19:50:52.486Z,1012.08
2023-01-30T19:51:52.485Z,1012.08
2023-01-30T19:52:52.477Z,1012.09
2023-01-30T19:53:52.466Z,1012.11
2023-01-30T19:54:52.435Z,1012.13
2023-01-30T19:55:52.445Z,1012.14
2023-01-30T19:56:52.510Z,1012.16
2023-01-30T19:57:52.412Z,1012.17
2023-01-30T19:58:52.401Z,1012.18
2023-01-30T19:59:52.396Z,1012.20
2023-01-30T20:00:52.378Z,1012.22
2023-01-30T20:01:52.550Z,1012.24
2023-01-30T20:02:52.525Z,1012.28
2023-01-30T20:03:52.359Z,1012.29
2023-01-30T20:04:52.333Z,1012.34
2023-01-30T20:05:52.356Z,1012.36
2023-01-30T20:06:52.332Z,1012.36
2023-01-30T20:07:52.311Z,1012.40
2023-01-30T20:08:52.293Z,1012.41
2023-01-30T20:09:52.297Z,1012.45
2023-01-30T20:10:52.271Z,1012.47
2023-01-30T20:11:52.275Z,1012.51
2023-01-30T20:12:52.261Z,1012.53
2023-01-30T20:13:52.258Z,1012.54
2023-01-30T20:14:52.239Z,1012.56
2023-01-30T20:15:52.301Z,1012.57
2023-01-30T20:16:52.218Z,1012.59
2023-01-30T20:17:52.208Z,1012.62
2023-01-30T20:18:52.198Z,1012.63
2023-01-30T20:19:52.189Z,1012.65
2023-01-30T20:20:52.174Z,1012.65
2023-01-30T20:21:52.176Z,1012.68
2023-01-30T20:22:52.148Z,1012.68
2023-01-30T20:23:52.154Z,1012.70
2023-01-30T20:24:52.129Z,1012.72
2023-01-30T20:25:52.119Z,1012.69
2023-01-30T20:26:52.152Z,1012.71
2023-01-30T20:27:52.099Z,1012.69
2023-01-30T20:28:52.097Z,1012.69
2023-01-30T20:29:53.210Z,1012.67
2023-01-30T20:30:52.093Z,1012.68
2023-01-30T20:31:52.078Z,1012.67
2023-01-30T20:32:52.045Z,1012.66
2023-01-30T20:33:52.049Z,1012.64
2023-01-30T20:34:52.041Z,1012.66
2023-01-30T20:35:52.010Z,1012.71
2023-01-30T20:36:52.025Z,1012.79
2023-01-30T20:37:52.741Z,1012.83
2023-01-30T20:38:51.984Z,1012.87
2023-01-30T20:39:51.973Z,1012.86
2023-01-30T20:40:52.001Z,1012.89
2023-01-30T20:41:51.961Z,1012.91
2023-01-30T20:42:51.940Z,1012.94
2023-01-30T20:43:51.930Z,1012.96
2023-01-30T20:44:51.938Z,1012.98
2023-01-30T20:45:51.921Z,1012.98
2023-01-30T20:46:51.965Z,1012.98
2023-01-30T20:47:51.895Z,1012.97
2023-01-30T20:48:54.556Z,1012.97
2023-01-30T20:49:51.871Z,1012.97
2023-01-30T20:50:51.857Z,1012.97
2023-01-30T20:51:51.854Z,1012.95
2023-01-30T20:52:51.846Z,1012.96
2023-01-30T20:53:51.830Z,1012.99
2023-01-30T20:54:51.848Z,1013.00
2023-01-30T20:55:51.803Z,1012.96
2023-01-30T20:56:51.839Z,1012.94
2023-01-30T20:57:51.795Z,1012.95
2023-01-30T20:58:51.778Z,1012.95
2023-01-30T20:59:51.767Z,1012.95
2023-01-30T21:00:51.807Z,1012.92
2023-01-30T21:01:51.763Z,1012.93
2023-01-30T21:02:51.739Z,1012.94
2023-01-30T21:03:51.744Z,1012.97
2023-01-30T21:04:51.732Z,1012.98
2023-01-30T21:05:51.696Z,1013.00
2023-01-30T21:06:51.743Z,1012.99
2023-01-30T21:07:51.675Z,1012.99
2023-01-30T21:08:51.669Z,1012.98
2023-01-30T21:09:51.664Z,1012.97
2023-01-30T21:10:51.670Z,1012.95
2023-01-30T21:11:51.635Z,1013.00
2023-01-30T21:12:51.629Z,1013.01
2023-01-30T21:13:51.620Z,1013.05
2023-01-30T21:14:51.620Z,1013.10
2023-01-30T21:15:51.594Z,1013.09
2023-01-30T21:16:51.804Z,1013.12
2023-01-30T21:17:51.572Z,1013.09
2023-01-30T21:18:51.572Z,1013.11
2023-01-30T21:19:51.549Z,1013.12
2023-01-30T21:20:51.558Z,1013.15
2023-01-30T21:21:51.667Z,1013.14
2023-01-30T21:22:51.547Z,1013.14
2023-01-30T21:23:51.511Z,1013.14
2023-01-30T21:24:51.535Z,1013.11
2023-01-30T21:25:51.489Z,1013.10
2023-01-30T21:26:51.560Z,1013.10
2023-01-30T21:27:51.469Z,1013.10
2023-01-30T21:28:51.468Z,1013.12
2023-01-30T21:29:51.447Z,1013.15
2023-01-30T21:30:51.529Z,1013.16
2023-01-30T21:31:51.679Z,1013.19
2023-01-30T21:32:51.438Z,1013.16
2023-01-30T21:33:51.414Z,1013.18
2023-01-30T21:34:51.403Z,1013.17
2023-01-30T21:35:51.409Z,1013.17
2023-01-30T21:36:51.395Z,1013.21
2023-01-30T21:37:51.368Z,1013.25
2023-01-30T21:38:51.367Z,1013.27
2023-01-30T21:39:51.372Z,1013.30
2023-01-30T21:40:51.355Z,1013.31
2023-01-30T21:41:51.337Z,1013.28
2023-01-30T21:42:51.322Z,1013.30
2023-01-30T21:43:51.324Z,1013.32
2023-01-30T21:44:51.337Z,1013.33
2023-01-30T21:45:51.314Z,1013.35
2023-01-30T21:46:51.287Z,1013.34
2023-01-30T21:47:51.264Z,1013.32
2023-01-30T21:48:51.299Z,1013.27
2023-01-30T21:49:51.249Z,1013.25
2023-01-30T21:50:51.240Z,1013.24
2023-01-30T21:51:51.225Z,1013.24
2023-01-30T21:52:51.242Z,1013.25
2023-01-30T21:53:51.204Z,1013.27
2023-01-30T21:54:51.219Z,1013.27
2023-01-30T21:55:51.193Z,1013.31
2023-01-30T21:56:51.227Z,1013.33
2023-01-30T21:57:51.171Z,1013.34
2023-01-30T21:58:51.158Z,1013.36
2023-01-30T21:59:51.136Z,1013.34
2023-01-30T22:00:51.145Z,1013.32
2023-01-30T22:01:51.124Z,1013.28
2023-01-30T22:02:51.113Z,1013.28
2023-01-30T22:03:51.135Z,1013.31
2023-01-30T22:04:51.104Z,1013.31
2023-01-30T22:05:51.080Z,1013.33
2023-01-30T22:06:51.069Z,1013.33
2023-01-30T22:07:51.089Z,1013.35
2023-01-30T22:08:51.048Z,1013.35
2023-01-30T22:09:51.049Z,1013.35
2023-01-30T22:10:51.067Z,1013.41
2023-01-30T22:11:51.021Z,1013.40
2023-01-30T22:12:51.004Z,1013.42
2023-01-30T22:13:51.004Z,1013.44
2023-01-30T22:14:50.997Z,1013.45
2023-01-30T22:15:50.978Z,1013.43
2023-01-30T22:16:51.015Z,1013.40
2023-01-30T22:17:50.993Z,1013.41
2023-01-30T22:18:50.951Z,1013.41
2023-01-30T22:19:50.933Z,1013.42
2023-01-30T22:20:50.928Z,1013.42
2023-01-30T22:21:50.931Z,1013.42
2023-01-30T22:22:50.916Z,1013.42
2023-01-30T22:23:51.043Z,1013.45
2023-01-30T22:24:50.900Z,1013.47
2023-01-30T22:25:50.883Z,1013.50
2023-01-30T22:26:50.910Z,1013.49
2023-01-30T22:27:50.855Z,1013.50
2023-01-30T22:28:50.840Z,1013.53
2023-01-30T22:29:50.844Z,1013.52
2023-01-30T22:30:50.864Z,1013.50
2023-01-30T22:31:51.418Z,1013.47
2023-01-30T22:32:51.231Z,1013.47
2023-01-30T22:33:51.136Z,1013.48
2023-01-30T22:34:55.874Z,1013.49
2023-01-30T22:35:51.112Z,1013.51
2023-01-30T22:36:50.910Z,1013.53
2023-01-30T22:37:50.752Z,1013.54
2023-01-30T22:38:50.739Z,1013.53
2023-01-30T22:39:50.724Z,1013.54
2023-01-30T22:40:50.715Z,1013.54
2023-01-30T22:41:50.726Z,1013.53
2023-01-30T22:42:50.765Z,1013.52
2023-01-30T22:43:50.678Z,1013.55
2023-01-30T22:44:50.673Z,1013.57
2023-01-30T22:45:50.658Z,1013.59
2023-01-30T22:46:50.687Z,1013.61
2023-01-30T22:47:50.642Z,1013.63
2023-01-30T22:48:50.631Z,1013.65
2023-01-30T22:49:50.612Z,1013.66
2023-01-30T22:50:50.629Z,1013.65
2023-01-30T22:51:50.593Z,1013.65
2023-01-30T22:52:50.606Z,1013.67
2023-01-30T22:53:50.578Z,1013.65
2023-01-30T22:54:50.573Z,1013.65
2023-01-30T22:55:50.560Z,1013.64
2023-01-30T22:56:50.547Z,1013.60
2023-01-30T22:57:50.541Z,1013.57
2023-01-30T22:58:50.547Z,1013.54
2023-01-30T22:59:50.513Z,1013.57
2023-01-30T23:00:50.516Z,1013.57
2023-01-30T23:01:50.500Z,1013.59
2023-01-30T23:02:50.487Z,1013.60
2023-01-30T23:03:50.488Z,1013.62
2023-01-30T23:04:50.480Z,1013.63
2023-01-30T23:05:50.486Z,1013.65
2023-01-30T23:06:50.446Z,1013.66
2023-01-30T23:07:50.430Z,1013.73
2023-01-30T23:08:50.431Z,1013.75
2023-01-30T23:09:50.407Z,1013.75
2023-01-30T23:10:50.408Z,1013.74
2023-01-30T23:11:50.390Z,1013.73
2023-01-30T23:12:50.374Z,1013.71
2023-01-30T23:13:50.365Z,1013.72
2023-01-30T23:14:50.364Z,1013.75
2023-01-30T23:15:50.340Z,1013.79
2023-01-30T23:16:50.380Z,1013.81
2023-01-30T23:17:50.324Z,1013.78
2023-01-30T23:18:50.319Z,1013.76
2023-01-30T23:19:50.303Z,1013.72
2023-01-30T23:20:50.289Z,1013.73
2023-01-30T23:21:50.282Z,1013.73
2023-01-30T23:22:50.280Z,1013.74
2023-01-30T23:23:50.254Z,1013.79
2023-01-30T23:24:50.256Z,1013.78
2023-01-30T23:25:50.241Z,1013.78
2023-01-30T23:26:51.205Z,1013.75
2023-01-30T23:27:50.218Z,1013.75
2023-01-30T23:28:50.206Z,1013.75
2023-01-30T23:29:50.192Z,1013.74
2023-01-30T23:30:50.205Z,1013.73
2023-01-30T23:31:50.388Z,1013.73
2023-01-30T23:32:50.182Z,1013.70
2023-01-30T23:33:50.155Z,1013.69
2023-01-30T23:34:50.138Z,1013.70
2023-01-30T23:35:50.144Z,1013.70
2023-01-30T23:36:50.127Z,1013.72
2023-01-30T23:37:50.105Z,1013.73
2023-01-30T23:38:50.093Z,1013.74
2023-01-30T23:39:50.088Z,1013.75
2023-01-30T23:40:50.079Z,1013.77
2023-01-30T23:41:50.065Z,1013.78
2023-01-30T23:42:50.051Z,1013.81
2023-01-30T23:43:50.773Z,1013.81
2023-01-30T23:44:50.033Z,1013.79
2023-01-30T23:45:50.089Z,1013.77
2023-01-30T23:46:50.007Z,1013.78
2023-01-30T23:47:50.009Z,1013.79
2023-01-30T23:48:49.992Z,1013.80
2023-01-30T23:49:49.994Z,1013.80
2023-01-30T23:50:49.999Z,1013.75
2023-01-30T23:51:49.960Z,1013.74
2023-01-30T23:52:49.943Z,1013.72
2023-01-30T23:53:49.944Z,1013.74
2023-01-30T23:54:49.925Z,1013.78
2023-01-30T23:55:49.920Z,1013.81
2023-01-30T23:56:49.903Z,1013.83
2023-01-30T23:57:49.882Z,1013.86
2023-01-30T23:58:49.898Z,1013.86
2023-01-30T23:59:49.908Z,1013.87
